Aeroporto :
LOGIN :

Iscrizione | Disclaimer

   EN    FR    IT 

 










Sommario :    VFR   VFR Marginale   IFR   IFR Intensivo   IFR Molto Intensivo
Visibilità : 
Base nubi : 
>= 8 km
>= 3000ft
5 / 8 km
1000 / 3000 ft
1500m / 5 km
500 / 1000 ft
800 / 1500m
200 / 500 ft
< 800m
< 200 ft
Simboli :   Temporali  Nebbia  Neve Forte  Precipitazioni Forti  Vento > 20 kt
SIGMETs :   Varie  Temporali  Ghiacco  Turbolenza  Onda orograficha  Ceneri Vulcaniche






- Altitudine del aeroporto : 377 ft


UUBW - Ramenskoye

ULTIMO METAR :
  • 310130Z 06004MPS 9000 OVC018 13/11 Q1008 R30/210050 NOSIG

METARs OBSOLETI :
  • 310100Z 03006MPS 9999 BKN020 14/11 Q1008 R30/210050 NOSIG
  • 310030Z 03006MPS 9999 BKN020 14/12 Q1008 R30/210050 NOSIG
  • 310000Z 02005MPS 9999 BKN016 14/12 Q1008 R30/210050 NOSIG
  • 302330Z 03006MPS 9999 BKN016 14/12 Q1009 R30/210050 NOSIG
  • 302300Z 03006MPS 9999 BKN013 15/13 Q1009 R30/210050 NOSIG
  • 302230Z 03006MPS 9999 FEW013 15/13 Q1008 R30/210050 NOSIG

TAF COR TAF UUBW
Valido dal 31 a 00 ore il 01 a 00 ore UTC


302258Z 3100/3124 02005G10MPS 6000 BKN016 TX17/3112Z TN10/3121Z
TEMPO 3100/3109 2100 -TSRA SCT005 BKN011 SCT016CB
TEMPO 3109/3118 36008G17MPS -SHRA FEW005 BKN016CB
PROB40
TEMPO 3109/3118 -TSRA SCT016CB



MetMap, La meteo Aeronautica in un colpo d'occhio ! - Copyright ORBIFLY Dicembre 2007 - Disclaimer

ORBIFLY MET'MAP TEAM :

Programmazione e sviluppo : Alexandra Zaïnal
Concezione : Baudouin d'Aumeries
Aiuto per la programmazione : Marc-Olivier Méhu
Supporto tecnico e logistico : Manuel Goepfert
Aiuto per la traduzione : Arnaldo La Scala

Contatto : metmap@orbifly.com




FONTI E CREDITI :

   NOAA